Startpagina
METAR-TAF:

METAR-TAF

Vliegvelden :

Savannakhet, Laos

breedte: 16-33-24N, lengte: 104-45-34E, hoogte: 155 m

Actueel weer

Dit bericht is 8 uur en het 23 minuten geleden gemaakt, om 10:00 UTC
Wind 4 kt uit het oosten
Temperatuur 28°C
Vochtigheid 79%
Druk 1005 hPa
Zicht: 5000 m
Verspreide wolken op 1600 ft
Gebroken wolken op 9300 ft
nevel

METAR: VLSK 191000Z 09004KT 5000 BR SCT016 BKN093 28/24 Q1005 NOSIG

Tijdstip: 01:23 (18:23 UTC)

Verwachting

Dit bericht is 1 uur en het 23 minuten geleden gemaakt, om 17:00 UTC
Verwachting geldig van 19 om 18 UTC tot 20 om 18 UTC
Wind 6 kt uit het zuidoosten
Zicht: 7000 m
Verspreide wolken op 1600 ft
Gebroken wolken op 9300 ft

TAF: VLSK 191700Z 1918/2018 14006KT 7000 SCT016 BKN093

Waarnemingen en weersverwachtingen van meer dan 4000 vliegvelden (METAR en TAF).

De beschikbare stations zijn de gele en rode punten op de kaart.

Ga met uw muis naar het station om de naam te zien.

Klik dan om waarnemingen en weersverwachtingen te zien.

kaart wijzigen: klik op de groene knoppen met een zwart kruis om in te zoomen, op de groene knop met een streepje om uit te zoomen of op de groene pijlen voor aangrenzende kaarten.


METAR-TAF: